Time;durP1;ratioP1;P1;durP2;ratioP2;P2;SDS_P1;SDS_P2;PMS_P1;PMS_P2;Temp;Humidity;BMP_temperature;BMP_pressure;BME280_temperature;BME280_humidity;BME280_pressure;Samples;Min_cycle;Max_cycle;Signal;HPM_P1;HPM_P2
2022/06/02 00:01:15;;;;;;;7.63;6.90;;;9.80;99.90;;;;;;5033400;28;20284;-60
2022/06/02 00:03:48;;;;;;;7.20;6.60;;;9.80;99.90;;;;;;5034095;28;20234;-61
2022/06/02 00:06:21;;;;;;;7.32;6.65;;;9.70;99.90;;;;;;5033488;28;20206;-61
2022/06/02 00:09:00;;;;;;;9.00;7.13;;;9.70;99.90;;;;;;5034183;28;20725;-61
2022/06/02 00:11:46;;;;;;;8.05;7.07;;;9.70;99.90;;;;;;5033540;28;20186;-61
2022/06/02 00:14:19;;;;;;;7.07;6.38;;;9.70;99.90;;;;;;5034609;28;20237;-59
2022/06/02 00:16:54;;;;;;;9.27;7.18;;;9.70;99.90;;;;;;5034486;28;20182;-60
2022/06/02 00:19:30;;;;;;;7.70;7.00;;;9.60;99.90;;;;;;5033014;28;20187;-61
2022/06/02 00:22:03;;;;;;;7.55;6.85;;;9.60;99.90;;;;;;5032956;28;20198;-62
2022/06/02 00:24:41;;;;;;;7.47;6.78;;;9.60;99.90;;;;;;5033761;28;20187;-60
2022/06/02 00:27:28;;;;;;;9.70;7.53;;;9.50;99.90;;;;;;5037153;28;20191;-60
2022/06/02 00:30:06;;;;;;;7.90;7.20;;;9.50;99.90;;;;;;5037411;28;20186;-61
2022/06/02 00:32:44;;;;;;;7.80;7.10;;;9.50;99.90;;;;;;5037241;28;20218;-61
2022/06/02 00:35:23;;;;;;;7.85;7.15;;;9.40;99.90;;;;;;5037166;28;20213;-61
2022/06/02 00:37:56;;;;;;;8.00;7.30;;;9.40;99.90;;;;;;5038107;28;20198;-61
2022/06/02 00:40:25;;;;;;;7.70;7.10;;;9.40;99.90;;;;;;5044214;28;20186;-61
2022/06/02 00:43:16;;;;;;;9.27;8.00;;;9.40;99.90;;;;;;5045372;28;20695;-62
2022/06/02 00:45:45;;;;;;;9.80;8.90;;;9.40;99.90;;;;;;5043323;28;20183;-60
2022/06/02 00:48:21;;;;;;;9.45;8.65;;;9.40;99.90;;;;;;5045102;28;20230;-60
2022/06/02 00:50:58;;;;;;;9.18;8.27;;;9.40;99.90;;;;;;5045737;28;20190;-61
2022/06/02 00:53:39;;;;;;;10.48;9.38;;;9.40;99.90;;;;;;5046313;28;20221;-61
2022/06/02 00:59:20;;;;;;;10.32;9.32;;;9.30;99.90;;;;;;5043611;28;20351;-61
2022/06/02 01:01:47;;;;;;;9.68;8.68;;;9.30;99.90;;;;;;5043730;28;20250;-61
2022/06/02 01:04:17;;;;;;;11.77;9.10;;;9.20;99.90;;;;;;5038677;28;20233;-60
2022/06/02 01:06:52;;;;;;;11.57;10.48;;;9.20;99.90;;;;;;5039695;28;20198;-61
2022/06/02 01:09:58;;;;;;;10.50;9.45;;;9.20;99.90;;;;;;5039802;28;20190;-59
2022/06/02 01:12:58;;;;;;;11.35;10.30;;;9.20;99.90;;;;;;5038362;28;20233;-60
2022/06/02 01:15:39;;;;;;;12.38;11.18;;;9.10;99.90;;;;;;5026727;28;20223;-60
2022/06/02 01:18:16;;;;;;;12.13;10.80;;;9.10;99.90;;;;;;5036308;28;20190;-61
2022/06/02 01:20:57;;;;;;;12.73;11.45;;;9.10;99.90;;;;;;5036566;28;20191;-62
2022/06/02 01:23:48;;;;;;;12.50;11.20;;;9.00;99.90;;;;;;5037786;28;20235;-60
2022/06/02 01:27:01;;;;;;;12.55;11.35;;;9.00;99.90;;;;;;5036740;28;20195;-62
2022/06/02 01:29:53;;;;;;;12.80;11.60;;;9.00;99.90;;;;;;5036005;28;20183;-61
2022/06/02 01:32:30;;;;;;;15.05;12.48;;;9.00;99.90;;;;;;5036382;28;20230;-61
2022/06/02 01:35:05;;;;;;;13.13;11.65;;;8.90;99.90;;;;;;5036110;28;20217;-61
2022/06/02 01:37:41;;;;;;;14.48;12.98;;;8.90;99.90;;;;;;5035680;28;20189;-62
2022/06/02 01:40:23;;;;;;;14.73;13.23;;;8.90;99.90;;;;;;5036216;28;20190;-62
2022/06/02 01:42:57;;;;;;;15.88;14.27;;;8.90;99.90;;;;;;5035809;28;20222;-61
2022/06/02 01:45:57;;;;;;;15.90;13.77;;;8.80;99.90;;;;;;5035794;28;20570;-61
2022/06/02 01:48:36;;;;;;;15.18;13.57;;;8.80;99.90;;;;;;5031967;28;20210;-61
2022/06/02 01:51:09;;;;;;;15.98;14.30;;;8.80;99.90;;;;;;5035188;28;20197;-62
2022/06/02 01:53:51;;;;;;;17.10;15.27;;;8.80;99.90;;;;;;5035548;28;20245;-61
2022/06/02 01:56:32;;;;;;;17.05;15.25;;;8.80;99.90;;;;;;5035758;28;20189;-60
2022/06/02 01:59:16;;;;;;;18.70;15.88;;;8.70;99.90;;;;;;5035593;28;20183;-62
2022/06/02 02:01:55;;;;;;;18.15;16.25;;;8.80;99.90;;;;;;5035327;28;20191;-61
2022/06/02 02:04:38;;;;;;;18.88;16.73;;;8.70;99.90;;;;;;5035079;28;20217;-61
2022/06/02 02:07:12;;;;;;;17.90;16.10;;;8.70;99.90;;;;;;5035513;28;20186;-61
2022/06/02 02:09:51;;;;;;;16.80;15.00;;;8.70;99.90;;;;;;5035354;28;20187;-61
2022/06/02 02:12:31;;;;;;;18.17;16.02;;;8.70;99.90;;;;;;5035085;28;20226;-61
2022/06/02 02:15:26;;;;;;;19.90;16.35;;;8.70;99.90;;;;;;5035399;28;20212;-62
2022/06/02 02:18:15;;;;;;;18.10;16.20;;;8.70;99.90;;;;;;5035336;28;20190;-61
2022/06/02 02:21:01;;;;;;;18.88;16.25;;;8.70;99.90;;;;;;5035096;28;20208;-62
2022/06/02 02:23:35;;;;;;;19.17;17.17;;;8.70;99.90;;;;;;5035028;28;20227;-61
2022/06/02 02:26:10;;;;;;;18.83;16.85;;;8.70;99.90;;;;;;5034967;28;20185;-61
2022/06/02 02:28:49;;;;;;;19.55;17.45;;;8.70;99.90;;;;;;5034966;28;20286;-61
2022/06/02 02:31:33;;;;;;;21.42;17.55;;;8.70;99.90;;;;;;5034658;28;20240;-62
2022/06/02 02:34:12;;;;;;;20.60;18.40;;;8.60;99.90;;;;;;5034905;28;20218;-61
2022/06/02 02:36:52;;;;;;;19.10;17.10;;;8.60;99.90;;;;;;5034981;28;20197;-62
2022/06/02 02:39:21;;;;;;;21.77;17.90;;;8.60;99.90;;;;;;5034920;28;20194;-62
2022/06/02 02:41:53;;;;;;;21.15;18.85;;;8.60;99.90;;;;;;5034916;28;20214;-62
2022/06/02 02:44:26;;;;;;;21.52;19.23;;;8.60;99.90;;;;;;5034660;28;20226;-61
2022/06/02 02:47:00;;;;;;;19.80;17.00;;;8.60;99.90;;;;;;5034745;28;20186;-61
2022/06/02 02:49:35;;;;;;;25.15;18.25;;;8.50;99.90;;;;;;5033188;28;20668;-62
2022/06/02 02:52:11;;;;;;;21.92;19.35;;;8.50;99.90;;;;;;5034226;28;20193;-62
2022/06/02 02:54:44;;;;;;;19.95;16.83;;;8.50;99.90;;;;;;5034356;28;20210;-61
2022/06/02 02:57:18;;;;;;;20.40;17.95;;;8.50;99.90;;;;;;5034419;28;20206;-61
2022/06/02 03:00:05;;;;;;;19.70;17.70;;;8.50;99.90;;;;;;5034129;28;20197;-61
2022/06/02 03:02:41;;;;;;;21.00;17.48;;;8.40;99.90;;;;;;5034042;28;20230;-61
2022/06/02 03:05:15;;;;;;;19.98;17.77;;;8.40;99.90;;;;;;5033995;28;20563;-61
2022/06/02 03:07:43;;;;;;;20.45;18.02;;;8.40;99.90;;;;;;5034420;28;20187;-61
2022/06/02 03:10:18;;;;;;;21.48;17.88;;;8.30;99.90;;;;;;5033639;28;20213;-61
2022/06/02 03:13:06;;;;;;;20.60;18.25;;;8.30;99.90;;;;;;5034020;28;20236;-61
2022/06/02 03:15:42;;;;;;;20.73;17.60;;;8.30;99.90;;;;;;5033613;28;20380;-61
2022/06/02 03:18:26;;;;;;;20.88;18.63;;;8.30;99.90;;;;;;5033968;28;20198;-61
2022/06/02 03:20:58;;;;;;;20.27;17.42;;;8.30;99.90;;;;;;5033683;28;20193;-61
2022/06/02 03:23:46;;;;;;;23.48;18.48;;;8.30;99.90;;;;;;5033420;28;20576;-61
2022/06/02 03:26:22;;;;;;;20.80;17.63;;;8.30;99.90;;;;;;5033640;28;20209;-60
2022/06/02 03:28:57;;;;;;;21.70;19.27;;;8.30;99.90;;;;;;5033611;28;20201;-61
2022/06/02 03:31:35;;;;;;;23.35;20.67;;;8.40;99.90;;;;;;5033833;28;20190;-60
2022/06/02 03:34:12;;;;;;;21.48;18.98;;;8.40;99.90;;;;;;5033473;28;20237;-61
2022/06/02 03:37:07;;;;;;;25.10;19.45;;;8.40;99.90;;;;;;5033762;28;20287;-60
2022/06/02 03:39:48;;;;;;;25.35;19.83;;;8.50;99.90;;;;;;5033595;28;20205;-61
2022/06/02 03:42:28;;;;;;;23.42;19.35;;;8.50;99.90;;;;;;5034069;28;20190;-61
2022/06/02 03:45:12;;;;;;;24.05;19.58;;;8.60;99.90;;;;;;5033567;28;20276;-60
2022/06/02 03:47:51;;;;;;;23.98;20.13;;;8.60;99.90;;;;;;5033303;28;20209;-60
2022/06/02 03:50:45;;;;;;;23.67;19.50;;;8.70;99.90;;;;;;5033568;28;20194;-62
2022/06/02 03:53:38;;;;;;;23.42;20.55;;;8.80;99.90;;;;;;5033370;28;20224;-60
2022/06/02 03:56:15;;;;;;;25.48;21.30;;;8.90;99.90;;;;;;5031649;28;20694;-61
2022/06/02 03:59:00;;;;;;;21.30;19.00;;;9.30;99.90;;;;;;5033261;28;20557;-61
2022/06/02 04:01:33;;;;;;;19.50;17.52;;;9.70;99.90;;;;;;5033042;28;20187;-61
2022/06/02 04:04:16;;;;;;;17.43;15.73;;;10.10;99.90;;;;;;5032794;28;20231;-61
2022/06/02 04:10:00;;;;;;;17.73;16.03;;;10.70;99.90;;;;;;5152343;27;20559;-61
2022/06/02 04:15:47;;;;;;;16.90;14.00;;;11.00;99.90;;;;;;5173870;27;20506;-60
2022/06/02 04:18:25;;;;;;;16.47;14.90;;;11.10;99.90;;;;;;5173802;27;20811;-62
2022/06/02 04:21:07;;;;;;;17.47;15.67;;;11.10;99.90;;;;;;5173558;27;20427;-61
2022/06/02 04:23:59;;;;;;;16.37;14.63;;;11.20;99.90;;;;;;5172232;27;20505;-62
2022/06/02 04:26:45;;;;;;;17.17;15.20;;;11.30;99.90;;;;;;5187808;27;21019;-62
2022/06/02 04:29:24;;;;;;;17.43;15.80;;;11.50;99.90;;;;;;5170459;27;20540;-60
2022/06/02 04:31:59;;;;;;;16.27;14.30;;;11.70;99.90;;;;;;5162712;27;20845;-61
2022/06/02 04:34:33;;;;;;;16.07;14.53;;;12.00;99.90;;;;;;5172533;27;20473;-62
2022/06/02 04:37:10;;;;;;;14.83;13.43;;;12.30;99.90;;;;;;5174205;27;20422;-61
2022/06/02 04:39:48;;;;;;;14.63;13.23;;;12.50;99.90;;;;;;5174162;27;20962;-63
2022/06/02 04:42:27;;;;;;;16.23;14.60;;;12.60;99.90;;;;;;5152671;27;20474;-62
2022/06/02 04:45:01;;;;;;;15.17;13.67;;;12.60;99.90;;;;;;5169893;27;20469;-62
2022/06/02 04:47:39;;;;;;;14.80;12.47;;;12.70;99.90;;;;;;5171144;27;20969;-65
2022/06/02 04:50:13;;;;;;;14.67;13.07;;;12.80;99.90;;;;;;5171282;27;20447;-61
2022/06/02 04:52:53;;;;;;;16.17;14.60;;;12.80;99.90;;;;;;5172286;27;20459;-61
2022/06/02 04:55:30;;;;;;;14.67;13.37;;;12.80;99.90;;;;;;5172023;27;20932;-61
2022/06/02 04:58:07;;;;;;;16.10;14.60;;;12.80;99.90;;;;;;5171882;27;20817;-62
2022/06/02 05:00:41;;;;;;;16.60;14.90;;;12.70;99.90;;;;;;5176301;27;20478;-62
2022/06/02 05:03:14;;;;;;;15.60;14.10;;;12.60;99.90;;;;;;5158864;27;20479;-62
2022/06/02 05:05:49;;;;;;;15.10;13.63;;;12.70;99.90;;;;;;5174349;27;20462;-61
2022/06/02 05:08:42;;;;;;;15.27;13.87;;;12.90;99.90;;;;;;5163030;27;20483;-61
2022/06/02 05:11:21;;;;;;;14.30;13.00;;;13.20;99.90;;;;;;5166936;27;20466;-60
2022/06/02 05:13:59;;;;;;;16.53;12.90;;;13.50;99.90;;;;;;5171912;27;20479;-61
2022/06/02 05:16:38;;;;;;;13.40;12.10;;;13.70;99.90;;;;;;5172963;27;20435;-60
2022/06/02 05:19:34;;;;;;;15.03;13.53;;;13.90;99.90;;;;;;5176308;27;20533;-60
2022/06/02 05:22:30;;;;;;;14.60;13.40;;;14.00;99.90;;;;;;5178798;27;20513;-61
2022/06/02 05:25:23;;;;;;;15.17;13.10;;;14.10;99.90;;;;;;5178819;27;20974;-60
2022/06/02 05:28:08;;;;;;;14.70;13.40;;;14.00;99.90;;;;;;5178813;27;20517;-60
2022/06/02 05:30:59;;;;;;;14.30;12.80;;;14.00;99.90;;;;;;5177327;27;20517;-60
2022/06/02 05:33:53;;;;;;;15.43;13.90;;;14.00;99.90;;;;;;5166719;27;20494;-60
2022/06/02 05:36:31;;;;;;;15.00;13.60;;;14.10;99.90;;;;;;5169956;27;20479;-60
2022/06/02 05:39:22;;;;;;;14.83;13.37;;;14.30;99.90;;;;;;5173889;27;20428;-60
2022/06/02 05:42:08;;;;;;;12.90;11.70;;;14.50;99.90;;;;;;5172550;27;20444;-61
2022/06/02 05:44:50;;;;;;;13.33;12.07;;;14.60;99.60;;;;;;5176059;27;20431;-60
2022/06/02 05:47:39;;;;;;;15.20;13.60;;;14.60;99.10;;;;;;5173627;27;20534;-62
2022/06/02 05:50:20;;;;;;;13.57;12.17;;;14.50;98.90;;;;;;5173939;27;20480;-61
2022/06/02 05:52:57;;;;;;;14.80;13.40;;;14.40;99.30;;;;;;5175230;27;20474;-63
2022/06/02 05:55:43;;;;;;;15.30;13.77;;;14.40;99.30;;;;;;5170259;27;20457;-61
2022/06/02 05:58:31;;;;;;;14.00;12.80;;;14.30;98.70;;;;;;5165495;27;20444;-60
2022/06/02 06:01:08;;;;;;;15.40;14.00;;;14.10;98.90;;;;;;5160329;27;20432;-61
2022/06/02 06:04:23;;;;;;;15.67;14.17;;;13.90;99.10;;;;;;5151230;22;20497;-59
2022/06/02 06:06:56;;;;;;;15.40;13.90;;;13.70;99.90;;;;;;5011893;28;20446;-60
2022/06/02 06:09:37;;;;;;;14.73;13.43;;;13.90;99.90;;;;;;5088905;28;20880;-58
2022/06/02 06:12:41;;;;;;;12.33;11.20;;;14.10;99.90;;;;;;5093891;28;20438;-59
2022/06/02 06:15:17;;;;;;;12.30;11.10;;;14.20;99.60;;;;;;5033712;28;20798;-60
2022/06/02 06:17:55;;;;;;;14.50;12.30;;;14.30;99.00;;;;;;5054075;28;20429;-58
2022/06/02 06:20:41;;;;;;;12.40;11.20;;;14.10;98.60;;;;;;5069340;28;20446;-59
2022/06/02 06:23:41;;;;;;;12.70;11.40;;;14.10;99.30;;;;;;5073924;28;20478;-58
2022/06/02 06:26:25;;;;;;;11.57;10.40;;;14.20;98.90;;;;;;5073957;28;20448;-59
2022/06/02 06:29:05;;;;;;;11.40;10.40;;;14.30;98.60;;;;;;5073724;28;20460;-58
2022/06/02 06:31:41;;;;;;;10.10;9.10;;;14.30;97.80;;;;;;5072804;28;20432;-58
2022/06/02 06:34:16;;;;;;;10.70;9.60;;;14.20;97.80;;;;;;5073291;28;20471;-60
2022/06/02 06:37:10;;;;;;;10.63;9.63;;;14.20;97.70;;;;;;5072958;28;20439;-60
2022/06/02 06:39:51;;;;;;;10.40;9.27;;;14.20;97.20;;;;;;5073658;28;20431;-58
2022/06/02 06:42:42;;;;;;;12.10;10.77;;;14.40;97.00;;;;;;5073022;28;20562;-58
2022/06/02 06:45:17;;;;;;;9.50;8.60;;;14.30;96.20;;;;;;5073742;28;20432;-60
2022/06/02 06:47:47;;;;;;;9.33;8.33;;;14.30;96.40;;;;;;5073923;28;20531;-60
2022/06/02 06:50:20;;;;;;;10.50;9.20;;;14.40;96.30;;;;;;5072847;28;20529;-58
2022/06/02 06:53:07;;;;;;;8.40;7.63;;;14.50;95.90;;;;;;5073011;28;20470;-61
2022/06/02 06:55:48;;;;;;;8.57;7.78;;;14.50;95.30;;;;;;5072816;28;20472;-59
2022/06/02 06:58:26;;;;;;;8.73;7.83;;;14.70;94.20;;;;;;5073768;28;20197;-58
2022/06/02 07:01:00;;;;;;;8.60;7.67;;;14.70;93.20;;;;;;5073175;28;20434;-59
2022/06/02 07:03:36;;;;;;;8.50;7.80;;;14.70;93.10;;;;;;5072906;28;20475;-59
2022/06/02 07:06:11;;;;;;;7.60;6.83;;;14.80;92.90;;;;;;5073593;28;20512;-61
2022/06/02 07:08:41;;;;;;;8.00;7.25;;;14.70;92.60;;;;;;5072480;28;20528;-60
2022/06/02 07:14:06;;;;;;;7.00;6.37;;;14.90;92.00;;;;;;5072003;28;20448;-60
2022/06/02 07:16:40;;;;;;;6.97;6.27;;;15.00;90.90;;;;;;5073260;28;20434;-60
2022/06/02 07:19:15;;;;;;;6.40;5.53;;;15.00;90.10;;;;;;5072628;28;20431;-60
2022/06/02 07:21:53;;;;;;;7.47;6.67;;;15.20;89.00;;;;;;5073032;28;20435;-60
2022/06/02 07:24:30;;;;;;;8.33;6.10;;;15.40;88.00;;;;;;5073155;28;20466;-61
2022/06/02 07:27:11;;;;;;;6.80;6.20;;;15.50;87.00;;;;;;5072120;28;20419;-60
2022/06/02 07:29:54;;;;;;;7.70;7.00;;;15.60;85.70;;;;;;5072784;28;20515;-60
2022/06/02 07:32:48;;;;;;;7.40;5.47;;;15.60;85.20;;;;;;5072943;28;20522;-61
2022/06/02 07:35:43;;;;;;;7.70;6.20;;;15.50;84.20;;;;;;5072118;28;20474;-60
2022/06/02 07:38:23;;;;;;;6.13;5.53;;;15.30;84.10;;;;;;5078370;28;20938;-60
2022/06/02 07:41:15;;;;;;;6.63;5.90;;;15.30;84.50;;;;;;5072432;28;20840;-59
2022/06/02 07:44:12;;;;;;;6.80;5.30;;;15.50;82.50;;;;;;5072554;28;20472;-59
2022/06/02 07:46:59;;;;;;;4.97;4.57;;;15.60;80.60;;;;;;5071160;28;20435;-61
2022/06/02 07:49:52;;;;;;;5.77;5.17;;;15.60;79.90;;;;;;5072673;28;20487;-60
2022/06/02 07:52:29;;;;;;;6.53;5.80;;;15.60;78.70;;;;;;5072617;28;20442;-59
2022/06/02 07:55:12;;;;;;;5.60;5.07;;;15.60;78.20;;;;;;5071342;28;20898;-61
2022/06/02 07:57:49;;;;;;;6.10;5.50;;;15.70;77.60;;;;;;5072455;28;20428;-61
2022/06/02 08:00:20;;;;;;;4.87;4.33;;;15.80;76.10;;;;;;5072360;28;20434;-61
2022/06/02 08:03:24;;;;;;;5.60;4.83;;;15.90;75.30;;;;;;5071015;28;20528;-61
2022/06/02 08:05:58;;;;;;;5.10;4.60;;;16.00;73.10;;;;;;5071708;28;20453;-61
2022/06/02 08:08:30;;;;;;;5.43;4.57;;;15.90;71.50;;;;;;5072637;28;20427;-61
2022/06/02 08:11:24;;;;;;;5.90;5.30;;;15.80;71.50;;;;;;5072449;28;20423;-60
2022/06/02 08:14:04;;;;;;;5.67;5.10;;;15.70;71.70;;;;;;5068565;28;20524;-61
2022/06/02 08:16:51;;;;;;;6.53;5.27;;;15.70;71.60;;;;;;5071885;28;20463;-61
2022/06/02 08:19:30;;;;;;;6.40;5.27;;;15.90;70.00;;;;;;5072269;28;20442;-62
2022/06/02 08:22:01;;;;;;;6.00;5.10;;;15.90;68.80;;;;;;5071052;28;20431;-61
2022/06/02 08:24:54;;;;;;;5.60;5.10;;;15.90;67.70;;;;;;5072235;28;20462;-61
2022/06/02 08:27:53;;;;;;;5.47;4.97;;;16.10;67.40;;;;;;5071189;28;20531;-61
2022/06/02 08:30:25;;;;;;;6.20;5.20;;;16.20;66.50;;;;;;5072053;28;20471;-60
2022/06/02 08:33:19;;;;;;;7.77;4.70;;;16.30;66.20;;;;;;5071428;28;20475;-60
2022/06/02 08:35:54;;;;;;;4.80;4.40;;;16.50;63.50;;;;;;5071082;28;20923;-61
2022/06/02 08:38:49;;;;;;;4.53;4.10;;;16.40;62.80;;;;;;5071981;28;20907;-61
2022/06/02 08:42:11;;;;;;;4.40;4.10;;;16.60;61.10;;;;;;5070955;28;20940;-62
2022/06/02 08:45:07;;;;;;;4.30;3.90;;;16.70;61.10;;;;;;5072119;28;20560;-61
2022/06/02 08:48:14;;;;;;;3.43;3.13;;;17.00;59.20;;;;;;5071614;28;20442;-61
2022/06/02 08:51:13;;;;;;;4.30;3.60;;;17.20;57.40;;;;;;5071997;28;20463;-61
2022/06/02 08:54:16;;;;;;;5.57;3.70;;;17.40;56.70;;;;;;5072247;28;20464;-60
2022/06/02 08:57:07;;;;;;;4.33;3.50;;;17.30;56.50;;;;;;5061542;28;20451;-61
2022/06/02 09:00:23;;;;;;;4.80;4.07;;;17.20;57.00;;;;;;5075697;28;20436;-62
2022/06/02 09:03:39;;;;;;;3.93;3.53;;;17.20;56.80;;;;;;5075637;28;20509;-62
2022/06/02 09:06:45;;;;;;;3.30;2.70;;;17.50;55.50;;;;;;5056003;28;20425;-61
2022/06/02 09:09:53;;;;;;;4.30;3.40;;;17.50;54.50;;;;;;5063126;28;20569;-63
2022/06/02 09:12:50;;;;;;;5.43;3.30;;;17.50;54.80;;;;;;5075919;28;20435;-61
2022/06/02 09:16:01;;;;;;;5.80;3.10;;;17.80;54.60;;;;;;5075766;28;20424;-61
2022/06/02 09:18:56;;;;;;;3.40;3.10;;;18.40;54.40;;;;;;5074190;28;20487;-61
2022/06/02 09:21:29;;;;;;;3.57;3.13;;;18.70;53.40;;;;;;5075010;28;20930;-61
2022/06/02 09:24:03;;;;;;;3.07;2.73;;;18.70;53.70;;;;;;5075091;28;20517;-61
2022/06/02 09:26:51;;;;;;;2.30;2.10;;;18.90;52.50;;;;;;5074233;28;20442;-61
2022/06/02 09:29:24;;;;;;;3.40;3.10;;;19.10;51.80;;;;;;5074187;28;20462;-62
2022/06/02 09:32:22;;;;;;;3.77;3.27;;;19.20;51.00;;;;;;5095196;28;20439;-61
2022/06/02 09:35:11;;;;;;;5.40;3.10;;;18.90;50.80;;;;;;5094696;28;20470;-60
2022/06/02 09:38:38;;;;;;;3.30;3.00;;;18.80;51.10;;;;;;5095178;28;20434;-60
2022/06/02 09:41:23;;;;;;;3.93;3.40;;;18.60;50.60;;;;;;5012711;28;20442;-60
2022/06/02 09:44:10;;;;;;;4.70;3.30;;;18.50;50.30;;;;;;5085866;28;20470;-60
2022/06/02 09:47:13;;;;;;;3.03;2.80;;;18.30;50.30;;;;;;5094906;28;20477;-60
2022/06/02 09:50:17;;;;;;;4.73;2.93;;;18.00;50.90;;;;;;5094893;28;20979;-60
2022/06/02 09:53:23;;;;;;;2.87;2.50;;;18.00;51.30;;;;;;5075236;28;20955;-60
2022/06/02 09:56:16;;;;;;;3.00;2.70;;;18.30;51.10;;;;;;5074848;28;20440;-60
2022/06/02 09:58:57;;;;;;;2.30;2.10;;;18.60;50.20;;;;;;5074724;28;20428;-60
2022/06/02 10:01:33;;;;;;;2.33;2.10;;;18.60;48.70;;;;;;5074529;28;20427;-60
2022/06/02 10:04:31;;;;;;;2.40;2.17;;;18.60;47.80;;;;;;5074136;28;20471;-59
2022/06/02 10:07:24;;;;;;;4.57;2.47;;;18.90;47.50;;;;;;5074738;28;20435;-60
2022/06/02 10:10:25;;;;;;;3.07;2.80;;;19.20;47.10;;;;;;5073789;28;20475;-60
2022/06/02 10:13:17;;;;;;;4.17;2.70;;;19.30;47.20;;;;;;5074523;28;20977;-61
2022/06/02 10:16:03;;;;;;;3.80;3.50;;;19.00;47.30;;;;;;5040711;28;20443;-60
2022/06/02 10:18:48;;;;;;;6.13;3.77;;;18.70;48.20;;;;;;5073454;28;20464;-60
2022/06/02 10:21:28;;;;;;;4.30;3.30;;;18.50;48.90;;;;;;5074214;28;20420;-60
2022/06/02 10:24:36;;;;;;;4.30;3.00;;;18.40;49.30;;;;;;5074278;28;20467;-60
2022/06/02 10:27:13;;;;;;;3.10;2.80;;;18.50;49.30;;;;;;5074304;28;20446;-61
2022/06/02 10:30:20;;;;;;;2.30;2.10;;;18.90;48.60;;;;;;5074419;28;20471;-61
2022/06/02 10:33:19;;;;;;;4.63;2.50;;;19.00;47.60;;;;;;5072673;28;20949;-61
2022/06/02 10:36:16;;;;;;;3.00;2.70;;;19.00;47.10;;;;;;5074261;28;20432;-62
2022/06/02 10:38:55;;;;;;;4.83;3.67;;;18.90;47.20;;;;;;5074205;28;20455;-59
2022/06/02 10:41:52;;;;;;;2.90;2.20;;;19.00;47.40;;;;;;5074881;28;20433;-61
2022/06/02 10:44:20;;;;;;;3.80;2.93;;;19.00;47.10;;;;;;5071998;28;21014;-61
2022/06/02 10:47:25;;;;;;;2.57;2.30;;;19.00;46.60;;;;;;5074438;28;20436;-62
2022/06/02 10:49:59;;;;;;;2.80;2.60;;;19.10;46.30;;;;;;5075802;28;20474;-59
2022/06/02 10:52:56;;;;;;;2.30;2.10;;;19.10;46.20;;;;;;5073742;28;20431;-62
2022/06/02 10:55:52;;;;;;;3.50;2.67;;;18.90;46.70;;;;;;5060593;28;20530;-61
2022/06/02 10:59:03;;;;;;;2.90;2.60;;;18.70;47.10;;;;;;5073386;28;20431;-60
2022/06/02 11:02:03;;;;;;;2.90;2.60;;;18.70;47.90;;;;;;5071720;28;20459;-60
2022/06/02 11:05:04;;;;;;;2.70;2.50;;;18.90;47.30;;;;;;5073002;28;20557;-61
2022/06/02 11:08:04;;;;;;;3.53;2.87;;;19.00;46.80;;;;;;5072718;28;20454;-62
2022/06/02 11:10:42;;;;;;;2.40;2.20;;;19.10;46.80;;;;;;5072949;28;20982;-61
2022/06/02 11:13:51;;;;;;;3.13;2.47;;;19.20;46.60;;;;;;5072935;28;20467;-61
2022/06/02 11:16:59;;;;;;;2.57;2.37;;;19.20;46.50;;;;;;5072969;28;20770;-61
2022/06/02 11:19:59;;;;;;;3.10;2.53;;;19.20;46.50;;;;;;5073018;28;20439;-60
2022/06/02 11:23:04;;;;;;;3.10;2.80;;;19.10;46.50;;;;;;5072989;28;20431;-57
2022/06/02 11:25:57;;;;;;;4.20;3.00;;;19.20;46.60;;;;;;5073327;28;20431;-62
2022/06/02 11:28:56;;;;;;;2.57;2.37;;;19.30;46.90;;;;;;5073042;28;20430;-61
2022/06/02 11:31:52;;;;;;;3.23;2.93;;;19.30;47.30;;;;;;5073405;28;20497;-61
2022/06/02 11:34:40;;;;;;;2.90;2.47;;;19.40;47.50;;;;;;5073829;28;20463;-61
2022/06/02 11:37:49;;;;;;;4.03;3.00;;;19.60;47.50;;;;;;5073221;28;20522;-60
2022/06/02 11:40:39;;;;;;;3.50;3.07;;;20.10;47.00;;;;;;5073204;28;20465;-60
2022/06/02 11:43:15;;;;;;;3.33;3.03;;;20.40;46.10;;;;;;5073103;28;20460;-60
2022/06/02 11:46:26;;;;;;;5.63;3.40;;;20.40;45.80;;;;;;5073482;28;20443;-60
2022/06/02 11:49:30;;;;;;;2.93;2.50;;;20.40;45.90;;;;;;5072817;28;20415;-60
2022/06/02 11:52:31;;;;;;;3.03;2.50;;;20.10;46.00;;;;;;5072646;28;20439;-60
2022/06/02 11:55:17;;;;;;;3.27;2.50;;;20.00;46.10;;;;;;5072642;28;20888;-61
2022/06/02 11:57:58;;;;;;;3.27;2.93;;;20.40;45.80;;;;;;5072903;28;20436;-61
2022/06/02 12:01:21;;;;;;;6.13;2.40;;;21.00;44.50;;;;;;5073240;28;20435;-60
2022/06/02 12:04:18;;;;;;;6.23;2.73;;;20.90;44.30;;;;;;5057178;22;20500;-63
2022/06/02 12:07:14;;;;;;;3.30;2.80;;;20.40;44.70;;;;;;5053010;28;20456;-63
2022/06/02 12:10:20;;;;;;;3.67;2.70;;;19.80;45.90;;;;;;5052450;28;20804;-63
2022/06/02 12:13:10;;;;;;;3.20;2.10;;;19.80;46.80;;;;;;5053097;28;20428;-62
2022/06/02 12:16:10;;;;;;;2.80;2.60;;;20.90;45.30;;;;;;5053139;28;20472;-62
2022/06/02 12:18:46;;;;;;;3.97;2.33;;;22.20;43.40;;;;;;5053105;28;20433;-63
2022/06/02 12:21:39;;;;;;;3.50;2.40;;;23.10;42.20;;;;;;5052724;28;20433;-62
2022/06/02 12:24:45;;;;;;;2.70;2.33;;;23.80;41.20;;;;;;5051085;28;20498;-62
2022/06/02 12:27:34;;;;;;;3.80;2.30;;;24.40;40.40;;;;;;5044357;28;20904;-61
2022/06/02 12:30:14;;;;;;;2.57;2.37;;;24.20;40.10;;;;;;5055118;28;20428;-63
2022/06/02 12:33:07;;;;;;;2.43;2.23;;;23.60;40.70;;;;;;5056637;28;20811;-62
2022/06/02 12:35:47;;;;;;;2.47;2.27;;;23.10;41.30;;;;;;5056341;28;20471;-60
2022/06/02 12:38:46;;;;;;;3.40;2.83;;;22.80;41.10;;;;;;5056882;28;20460;-62
2022/06/02 12:41:31;;;;;;;4.30;2.50;;;22.60;41.10;;;;;;5056412;28;20424;-62
2022/06/02 12:44:31;;;;;;;2.83;2.33;;;22.10;41.80;;;;;;5057323;28;20463;-63
2022/06/02 12:47:43;;;;;;;3.20;2.73;;;21.50;42.80;;;;;;5056252;28;20448;-62
2022/06/02 12:50:23;;;;;;;2.80;2.60;;;20.80;43.90;;;;;;5027778;28;20487;-62
2022/06/02 12:53:14;;;;;;;4.53;2.63;;;20.40;44.50;;;;;;5056395;28;20827;-62
2022/06/02 12:56:17;;;;;;;2.73;2.53;;;20.50;44.80;;;;;;5056467;28;20428;-62
2022/06/02 12:59:11;;;;;;;3.10;2.20;;;20.70;44.40;;;;;;5056134;28;20958;-63
2022/06/02 13:01:51;;;;;;;3.17;2.27;;;20.60;43.90;;;;;;5023681;28;20441;-62
2022/06/02 13:05:10;;;;;;;3.13;2.70;;;20.60;43.90;;;;;;5056028;28;20479;-62
2022/06/02 13:08:09;;;;;;;3.07;2.77;;;20.50;44.00;;;;;;5055781;28;20436;-63
2022/06/02 13:10:49;;;;;;;2.27;2.07;;;20.50;44.30;;;;;;5030158;28;20494;-64
2022/06/02 13:14:09;;;;;;;4.27;2.97;;;20.50;44.40;;;;;;5055731;28;20435;-64
2022/06/02 13:17:13;;;;;;;2.53;2.17;;;20.50;44.60;;;;;;5055551;28;20429;-62
2022/06/02 13:20:23;;;;;;;2.43;2.23;;;20.30;45.00;;;;;;5056155;28;20429;-61
2022/06/02 13:23:14;;;;;;;3.13;2.20;;;20.20;45.00;;;;;;5055666;28;20432;-61
2022/06/02 13:26:13;;;;;;;2.87;2.00;;;20.10;45.20;;;;;;5056050;28;20425;-62
2022/06/02 13:29:19;;;;;;;2.50;2.23;;;20.20;45.10;;;;;;5055640;28;20432;-62
2022/06/02 13:32:22;;;;;;;2.47;2.17;;;20.40;45.10;;;;;;5055519;28;20479;-62
2022/06/02 13:35:30;;;;;;;2.50;2.00;;;20.60;44.60;;;;;;5055265;28;20468;-61
2022/06/02 13:38:53;;;;;;;3.33;2.70;;;20.80;44.40;;;;;;5051920;28;20463;-61
2022/06/02 13:41:37;;;;;;;4.50;3.27;;;21.00;44.30;;;;;;5055311;28;20528;-62
2022/06/02 13:44:46;;;;;;;4.23;2.30;;;20.90;44.00;;;;;;5055369;28;20464;-62
2022/06/02 13:47:53;;;;;;;2.77;2.27;;;20.70;44.00;;;;;;5026232;28;20482;-62
2022/06/02 13:50:55;;;;;;;3.60;2.57;;;20.60;44.20;;;;;;5029407;28;20444;-62
2022/06/02 14:00:03;;;;;;;2.23;2.03;;;20.50;44.70;;;;;;5058029;28;20408;-62
2022/06/02 14:03:06;;;;;;;2.10;1.90;;;20.60;44.40;;;;;;5057236;28;20433;-62
2022/06/02 14:05:49;;;;;;;2.53;2.17;;;20.70;44.00;;;;;;5046278;28;20486;-64
2022/06/02 14:08:39;;;;;;;2.10;1.80;;;20.70;43.90;;;;;;5055736;28;20441;-61
2022/06/02 14:11:18;;;;;;;4.00;2.40;;;20.60;44.20;;;;;;5056175;28;20468;-62
2022/06/02 14:14:23;;;;;;;2.37;1.57;;;20.60;44.20;;;;;;5055014;28;20460;-62
2022/06/02 14:17:03;;;;;;;2.27;2.07;;;20.60;44.10;;;;;;5055203;28;20460;-64
2022/06/02 14:19:50;;;;;;;3.33;2.47;;;20.50;44.20;;;;;;5054671;28;20495;-63
2022/06/02 14:22:25;;;;;;;2.43;2.23;;;20.40;44.60;;;;;;5054459;28;20453;-62
2022/06/02 14:25:02;;;;;;;2.53;2.00;;;20.30;45.00;;;;;;5054902;28;20460;-63
2022/06/02 14:27:38;;;;;;;2.50;1.90;;;20.30;45.10;;;;;;5054400;28;20431;-62
2022/06/02 14:30:10;;;;;;;2.50;2.10;;;20.50;45.20;;;;;;5054484;28;20901;-61
2022/06/02 14:32:50;;;;;;;2.23;1.90;;;20.50;45.10;;;;;;5054183;28;20499;-62
2022/06/02 14:35:31;;;;;;;2.40;1.87;;;20.50;45.00;;;;;;5054246;28;20483;-62
2022/06/02 14:38:10;;;;;;;6.10;2.27;;;20.60;44.90;;;;;;5054481;28;20451;-61